createdAt,value
2022-12-01T00:00:17.637Z,15.79
2022-12-01T00:10:28.592Z,15.79
2022-12-01T00:20:30.244Z,15.76
2022-12-01T00:30:31.756Z,15.74
2022-12-01T00:40:33.133Z,15.70
2022-12-01T00:50:34.594Z,15.68
2022-12-01T01:00:38.524Z,15.67
2022-12-01T01:10:44.724Z,15.65
2022-12-01T01:20:46.900Z,15.63
2022-12-01T01:30:48.540Z,15.63
2022-12-01T01:40:49.936Z,15.63
2022-12-01T01:50:51.463Z,15.60
2022-12-01T02:00:53.012Z,15.62
2022-12-01T02:11:18.012Z,15.57
2022-12-01T02:21:51.312Z,15.58
2022-12-01T02:32:03.887Z,15.56
2022-12-01T02:42:36.056Z,15.54
2022-12-01T02:52:38.558Z,15.52
2022-12-01T03:03:02.458Z,15.52
2022-12-01T03:13:16.052Z,15.51
2022-12-01T03:23:20.858Z,15.52
2022-12-01T03:33:27.894Z,15.49
2022-12-01T03:43:32.468Z,15.46
2022-12-01T03:53:44.689Z,15.44
2022-12-01T04:03:46.779Z,15.42
2022-12-01T04:13:48.179Z,15.38
2022-12-01T04:24:01.880Z,15.33
2022-12-01T04:34:04.032Z,15.30
2022-12-01T04:44:05.675Z,15.30
2022-12-01T04:54:07.241Z,15.26
2022-12-01T05:04:11.195Z,15.23
2022-12-01T05:14:12.748Z,15.26
2022-12-01T05:24:14.313Z,15.48
2022-12-01T05:34:15.924Z,15.72
2022-12-01T05:44:17.303Z,15.98
2022-12-01T05:54:18.690Z,16.23
2022-12-01T06:04:20.236Z,16.48
2022-12-01T06:14:21.648Z,16.66
2022-12-01T06:24:23.020Z,16.84
2022-12-01T06:34:24.704Z,16.95
2022-12-01T06:44:26.258Z,17.08
2022-12-01T06:54:27.648Z,17.19
2022-12-01T07:04:29.469Z,17.27
2022-12-01T07:14:31.578Z,17.40
2022-12-01T07:24:32.943Z,17.46
2022-12-01T07:34:34.304Z,17.52
2022-12-01T07:44:35.720Z,17.57
2022-12-01T07:54:37.163Z,17.62
2022-12-01T08:04:38.543Z,17.66
2022-12-01T08:14:40.112Z,17.72
2022-12-01T08:24:41.485Z,17.75
2022-12-01T08:34:43.052Z,17.81
2022-12-01T08:44:44.495Z,17.85
2022-12-01T08:54:45.956Z,17.89
2022-12-01T09:04:47.977Z,17.95
2022-12-01T09:14:49.544Z,17.97
2022-12-01T09:24:50.965Z,18.03
2022-12-01T09:34:52.421Z,18.06
2022-12-01T09:44:55.038Z,18.12
2022-12-01T09:54:57.440Z,18.14
2022-12-01T10:04:59.353Z,18.15
2022-12-01T10:15:18.285Z,18.21
2022-12-01T10:25:27.681Z,18.25
2022-12-01T10:35:31.992Z,18.31
2022-12-01T10:45:40.818Z,18.34
2022-12-01T10:55:47.829Z,18.37
2022-12-01T11:05:55.065Z,18.41
2022-12-01T11:15:57.235Z,18.48
2022-12-01T11:26:30.577Z,18.50
2022-12-01T11:36:42.794Z,18.55
2022-12-01T11:46:50.290Z,18.63
2022-12-01T11:57:31.818Z,18.63
2022-12-01T12:07:53.393Z,18.65
2022-12-01T12:18:03.919Z,18.67
2022-12-01T12:28:11.005Z,18.73
2022-12-01T12:38:31.834Z,18.76
2022-12-01T12:49:18.757Z,18.73
2022-12-01T12:59:34.557Z,18.77
2022-12-01T13:09:52.675Z,18.72
2022-12-01T13:19:54.190Z,18.66
2022-12-01T13:29:56.032Z,18.55
2022-12-01T13:40:20.038Z,18.41
2022-12-01T13:50:43.692Z,18.32
2022-12-01T14:00:45.907Z,18.23
2022-12-01T14:11:07.069Z,18.10
2022-12-01T14:21:10.406Z,18.02
2022-12-01T14:31:12.205Z,17.91
2022-12-01T14:41:22.803Z,17.79
2022-12-01T14:51:28.010Z,17.69
2022-12-01T15:01:34.469Z,17.63
2022-12-01T15:11:38.906Z,17.54
2022-12-01T15:21:40.297Z,17.45
2022-12-01T15:31:43.665Z,17.36
2022-12-01T15:41:46.366Z,17.29
2022-12-01T15:51:48.115Z,17.19
2022-12-01T16:01:49.570Z,17.08
2022-12-01T16:12:06.903Z,16.96
2022-12-01T16:22:13.960Z,16.90
2022-12-01T16:32:39.490Z,16.84
2022-12-01T16:42:40.928Z,16.78
2022-12-01T16:52:44.930Z,16.74
2022-12-01T17:02:47.199Z,16.69
2022-12-01T17:12:48.887Z,16.66
2022-12-01T17:22:50.333Z,16.63
2022-12-01T17:32:51.749Z,16.59
2022-12-01T17:42:53.169Z,16.52
2022-12-01T17:52:54.590Z,16.47
2022-12-01T18:02:56.114Z,16.41
2022-12-01T18:12:57.566Z,16.33
2022-12-01T18:22:58.966Z,16.26
2022-12-01T18:33:00.737Z,16.21
2022-12-01T18:43:02.123Z,16.12
2022-12-01T18:53:03.512Z,16.06
2022-12-01T19:03:04.956Z,16.00
2022-12-01T19:13:06.509Z,15.92
2022-12-01T19:23:07.906Z,15.86
2022-12-01T19:33:09.308Z,15.76
2022-12-01T19:43:10.693Z,15.71
2022-12-01T19:53:12.271Z,15.66
2022-12-01T20:03:14.832Z,15.64
2022-12-01T20:13:16.233Z,15.61
2022-12-01T20:23:17.678Z,15.58
2022-12-01T20:33:19.172Z,15.57
2022-12-01T20:43:20.632Z,15.56
2022-12-01T20:53:22.215Z,15.53
2022-12-01T21:03:23.677Z,15.49
2022-12-01T21:13:44.176Z,15.47
2022-12-01T21:23:45.705Z,15.46
2022-12-01T21:33:47.173Z,15.48
2022-12-01T21:43:48.559Z,15.46
2022-12-01T21:53:51.048Z,15.42
2022-12-01T22:03:52.561Z,15.37
2022-12-01T22:14:06.222Z,15.32
2022-12-01T22:24:07.430Z,15.27
2022-12-01T22:34:09.898Z,15.26
2022-12-01T22:44:11.270Z,15.23
2022-12-01T22:54:12.467Z,15.20
2022-12-01T23:04:26.510Z,15.18
2022-12-01T23:14:28.525Z,15.14
2022-12-01T23:24:33.838Z,15.14
2022-12-01T23:34:35.632Z,15.10
2022-12-01T23:44:39.777Z,15.05
2022-12-01T23:54:41.169Z,15.00
